Overbrook, Oklahoma
Current Conditions -  °F | °C
As of 3:35 PM on Monday 24 Nov 2014 (Local Time) from K1F0 Reporting Station
Clear Clear  
Wind Chill: 59°   Ceiling: Unl
Heat Index: 59°   Visibility: 10mi
Dew Point: 12°   Wind: 6mph
Humidity: 16%   Direction: 330°NNW
Pressure: 30.01"   Gusts: NA
Location:  34.07°N, 97.14°W
Report Text: K1F0 242135Z AUTO 33005KT 290V020 10SM CLR 15/M11 A3001 RMK AO2
Loading
Personal Weather Stations






























Interactive Weather Map New forecast layout! Learn more

10-Day Weather Forecast

Advertisements
Track Severe Weather on mobile